Time;durP1;ratioP1;P1;durP2;ratioP2;P2;SDS_P1;SDS_P2;PMS_P1;PMS_P2;Temp;Humidity;BMP_temperature;BMP_pressure;BME280_temperature;BME280_humidity;BME280_pressure;Samples;Min_cycle;Max_cycle;Signal;HPM_P1;HPM_P2
2023/06/16 00:01:23;;;;;;;12.65;12.05;;;;;;;;;;4988772;28;20026;-64
2023/06/16 00:03:49;;;;;;;13.02;12.43;;;;;;;;;;4979853;28;20048;-65
2023/06/16 00:06:15;;;;;;;12.70;12.10;;;;;;;;;;4988783;28;20030;-65
2023/06/16 00:08:41;;;;;;;13.70;13.00;;;;;;;;;;4984886;28;20434;-64
2023/06/16 00:11:06;;;;;;;12.65;12.05;;;;;;;;;;4987548;28;20541;-64
2023/06/16 00:13:32;;;;;;;13.60;12.90;;;;;;;;;;4987385;28;20117;-64
2023/06/16 00:15:57;;;;;;;12.77;12.18;;;;;;;;;;4984476;28;20058;-64
2023/06/16 00:18:24;;;;;;;12.43;11.82;;;;;;;;;;4992432;28;20038;-64
2023/06/16 00:20:51;;;;;;;12.48;11.88;;;;;;;;;;4988798;28;20049;-65
2023/06/16 00:23:20;;;;;;;13.00;12.40;;;;;;;;;;4984251;28;20031;-64
2023/06/16 00:25:45;;;;;;;13.40;12.70;;;;;;;;;;4985269;28;20054;-64
2023/06/16 00:28:11;;;;;;;12.45;11.85;;;;;;;;;;4986553;28;20081;-64
2023/06/16 00:30:36;;;;;;;14.15;13.35;;;;;;;;;;4986357;28;20018;-64
2023/06/16 00:33:01;;;;;;;12.52;11.93;;;;;;;;;;4990591;28;20023;-64
2023/06/16 00:35:26;;;;;;;12.77;12.18;;;;;;;;;;4986830;28;20031;-65
2023/06/16 00:37:52;;;;;;;13.82;13.13;;;;;;;;;;4984833;28;20032;-63
2023/06/16 00:40:17;;;;;;;12.98;12.38;;;;;;;;;;4987793;28;20026;-64
2023/06/16 00:42:42;;;;;;;13.32;12.63;;;;;;;;;;4987845;28;20026;-65
2023/06/16 00:45:08;;;;;;;12.68;12.07;;;;;;;;;;4987659;28;20030;-64
2023/06/16 00:47:33;;;;;;;13.52;12.82;;;;;;;;;;4989580;28;20495;-64
2023/06/16 00:49:59;;;;;;;12.57;11.98;;;;;;;;;;4991950;28;20029;-63
2023/06/16 00:52:27;;;;;;;12.90;12.30;;;;;;;;;;4984432;28;20049;-62
2023/06/16 00:54:55;;;;;;;12.73;12.13;;;;;;;;;;4987514;28;20086;-63
2023/06/16 00:57:20;;;;;;;12.90;12.30;;;;;;;;;;4992591;28;20026;-63
2023/06/16 00:59:46;;;;;;;12.65;12.05;;;;;;;;;;4985876;28;20027;-64
2023/06/16 01:02:13;;;;;;;12.95;12.35;;;;;;;;;;4986747;28;20106;-64
2023/06/16 01:04:38;;;;;;;12.60;12.00;;;;;;;;;;4983175;28;20035;-64
2023/06/16 01:07:09;;;;;;;12.80;12.20;;;;;;;;;;4980887;28;20053;-64
2023/06/16 01:09:41;;;;;;;13.05;12.35;;;;;;;;;;4987807;28;20064;-64
2023/06/16 01:12:15;;;;;;;12.60;12.00;;;;;;;;;;4982849;28;20027;-63
2023/06/16 01:14:51;;;;;;;12.68;12.07;;;;;;;;;;4988993;28;20026;-64
2023/06/16 01:17:21;;;;;;;12.40;11.80;;;;;;;;;;4988404;28;20518;-64
2023/06/16 01:19:50;;;;;;;12.40;11.80;;;;;;;;;;4989545;28;20034;-64
2023/06/16 01:22:35;;;;;;;13.00;12.38;;;;;;;;;;4987735;28;20027;-65
2023/06/16 01:25:03;;;;;;;13.63;12.93;;;;;;;;;;4968330;28;20042;-64
2023/06/16 01:27:29;;;;;;;13.38;12.68;;;;;;;;;;4986698;28;20100;-65
2023/06/16 01:29:56;;;;;;;12.80;12.20;;;;;;;;;;4987685;28;20478;-64
2023/06/16 01:32:22;;;;;;;12.95;12.32;;;;;;;;;;4983814;28;20061;-64
2023/06/16 01:34:48;;;;;;;12.50;11.90;;;;;;;;;;4986673;28;20030;-64
2023/06/16 01:37:14;;;;;;;12.98;12.35;;;;;;;;;;4989480;28;20022;-64
2023/06/16 01:39:40;;;;;;;12.55;11.95;;;;;;;;;;4983954;28;20034;-64
2023/06/16 01:42:06;;;;;;;14.40;13.60;;;;;;;;;;4983053;28;22689;-64
2023/06/16 01:44:32;;;;;;;12.45;11.85;;;;;;;;;;4984307;28;20102;-65
2023/06/16 01:46:57;;;;;;;12.85;12.25;;;;;;;;;;4988068;28;20112;-64
2023/06/16 01:49:23;;;;;;;12.70;12.10;;;;;;;;;;4990424;28;20054;-65
2023/06/16 01:51:48;;;;;;;12.70;12.10;;;;;;;;;;4992133;28;20128;-65
2023/06/16 01:54:14;;;;;;;12.23;11.68;;;;;;;;;;4993276;28;20042;-64
2023/06/16 01:56:39;;;;;;;13.10;12.45;;;;;;;;;;4992828;28;20441;-64
2023/06/16 01:59:05;;;;;;;12.85;12.25;;;;;;;;;;4991312;28;20076;-64
2023/06/16 02:01:33;;;;;;;12.40;11.80;;;;;;;;;;4987445;28;20046;-64
2023/06/16 02:04:08;;;;;;;13.07;12.40;;;;;;;;;;4990517;28;20033;-64
2023/06/16 02:06:37;;;;;;;12.73;12.13;;;;;;;;;;4988222;28;20112;-63
2023/06/16 02:09:04;;;;;;;12.52;11.93;;;;;;;;;;4991617;28;20076;-63
2023/06/16 02:11:30;;;;;;;12.80;12.20;;;;;;;;;;4993285;28;20106;-64
2023/06/16 02:13:55;;;;;;;12.20;11.60;;;;;;;;;;4987846;28;20401;-64
2023/06/16 02:16:21;;;;;;;12.50;11.90;;;;;;;;;;4987115;28;20089;-64
2023/06/16 02:18:49;;;;;;;12.68;12.07;;;;;;;;;;4990864;28;20106;-64
2023/06/16 02:21:14;;;;;;;12.40;11.80;;;;;;;;;;4992394;28;20035;-64
2023/06/16 02:23:40;;;;;;;12.48;11.88;;;;;;;;;;4993781;28;20117;-65
2023/06/16 02:26:05;;;;;;;12.50;11.90;;;;;;;;;;4986945;28;20058;-65
2023/06/16 02:28:30;;;;;;;12.65;12.05;;;;;;;;;;4990839;28;20077;-65
2023/06/16 02:30:55;;;;;;;12.80;12.20;;;;;;;;;;4990471;28;20034;-64
2023/06/16 02:33:21;;;;;;;12.68;12.07;;;;;;;;;;4987870;28;20074;-64
2023/06/16 02:35:47;;;;;;;12.20;11.60;;;;;;;;;;4991742;28;20070;-64
2023/06/16 02:38:12;;;;;;;12.20;11.60;;;;;;;;;;4991922;28;20026;-64
2023/06/16 02:40:37;;;;;;;12.50;11.90;;;;;;;;;;4991126;28;20033;-65
2023/06/16 02:43:03;;;;;;;12.55;11.95;;;;;;;;;;4991004;28;20026;-64
2023/06/16 02:45:28;;;;;;;12.90;12.30;;;;;;;;;;4991755;28;20481;-64
2023/06/16 02:47:53;;;;;;;12.20;11.60;;;;;;;;;;4992413;28;20101;-65
2023/06/16 02:50:19;;;;;;;12.45;11.85;;;;;;;;;;4991258;28;20474;-65
2023/06/16 02:52:44;;;;;;;12.20;11.60;;;;;;;;;;4989861;28;20036;-65
2023/06/16 02:55:10;;;;;;;12.50;11.90;;;;;;;;;;4990768;28;20065;-65
2023/06/16 02:57:35;;;;;;;12.57;11.98;;;;;;;;;;4998511;28;20022;-64
2023/06/16 03:00:01;;;;;;;12.60;12.00;;;;;;;;;;4984735;28;20049;-64
2023/06/16 03:02:26;;;;;;;12.95;12.35;;;;;;;;;;4988566;28;20037;-64
2023/06/16 03:04:52;;;;;;;12.07;11.50;;;;;;;;;;4993061;28;20446;-65
2023/06/16 03:07:17;;;;;;;12.88;12.27;;;;;;;;;;4983872;28;20030;-65
2023/06/16 03:09:43;;;;;;;12.40;11.80;;;;;;;;;;4986647;28;20539;-65
2023/06/16 03:12:08;;;;;;;12.82;12.23;;;;;;;;;;4992280;28;20022;-65
2023/06/16 03:14:33;;;;;;;13.07;12.48;;;;;;;;;;4986618;28;20050;-65
2023/06/16 03:17:00;;;;;;;12.73;12.13;;;;;;;;;;4991417;28;20101;-65
2023/06/16 03:19:25;;;;;;;12.70;12.10;;;;;;;;;;4991795;28;20106;-65
2023/06/16 03:21:50;;;;;;;11.90;11.40;;;;;;;;;;4990599;28;20093;-65
2023/06/16 03:24:19;;;;;;;12.40;11.80;;;;;;;;;;4990792;28;20058;-65
2023/06/16 03:26:47;;;;;;;12.30;11.70;;;;;;;;;;4990032;28;20042;-65
2023/06/16 03:29:13;;;;;;;13.32;12.70;;;;;;;;;;4985650;28;20448;-64
2023/06/16 03:31:39;;;;;;;12.63;12.02;;;;;;;;;;4987834;28;20425;-65
2023/06/16 03:34:05;;;;;;;12.43;11.82;;;;;;;;;;4990854;28;20047;-65
2023/06/16 03:36:35;;;;;;;12.07;11.55;;;;;;;;;;4990121;28;20098;-64
2023/06/16 03:39:01;;;;;;;12.27;11.68;;;;;;;;;;4987331;28;20495;-65
2023/06/16 03:41:26;;;;;;;12.35;11.75;;;;;;;;;;4987391;28;20061;-65
2023/06/16 03:43:52;;;;;;;12.10;11.60;;;;;;;;;;4990267;28;20492;-64
2023/06/16 03:46:17;;;;;;;12.30;11.70;;;;;;;;;;4988265;28;20724;-64
2023/06/16 03:48:42;;;;;;;12.35;11.75;;;;;;;;;;4991841;28;20041;-65
2023/06/16 03:51:08;;;;;;;12.70;12.10;;;;;;;;;;4986361;28;20042;-65
2023/06/16 03:53:33;;;;;;;12.43;11.82;;;;;;;;;;4991522;28;20070;-65
2023/06/16 03:55:58;;;;;;;12.10;11.60;;;;;;;;;;4987793;28;20102;-65
2023/06/16 03:58:24;;;;;;;12.18;11.65;;;;;;;;;;4992210;28;20105;-65
2023/06/16 04:00:50;;;;;;;12.30;11.70;;;;;;;;;;4986257;28;20026;-65
2023/06/16 04:03:15;;;;;;;12.88;12.27;;;;;;;;;;4988729;28;20390;-64
2023/06/16 04:05:40;;;;;;;12.50;11.90;;;;;;;;;;4989665;28;20077;-66
2023/06/16 04:08:06;;;;;;;12.00;11.50;;;;;;;;;;4985032;28;20513;-65
2023/06/16 04:10:32;;;;;;;13.13;12.52;;;;;;;;;;4989680;28;20061;-65
2023/06/16 04:12:57;;;;;;;12.35;11.75;;;;;;;;;;4989087;28;20186;-65
2023/06/16 04:15:22;;;;;;;11.85;11.35;;;;;;;;;;4991257;28;20185;-65
2023/06/16 04:17:48;;;;;;;12.25;11.68;;;;;;;;;;4991498;28;20049;-65
2023/06/16 04:20:13;;;;;;;12.50;11.90;;;;;;;;;;4985114;28;20018;-65
2023/06/16 04:22:39;;;;;;;12.25;11.68;;;;;;;;;;4990428;28;20319;-65
2023/06/16 04:25:05;;;;;;;12.48;11.88;;;;;;;;;;4988839;28;20026;-64
2023/06/16 04:27:32;;;;;;;12.27;11.68;;;;;;;;;;4990161;28;20139;-64
2023/06/16 04:29:57;;;;;;;11.85;11.35;;;;;;;;;;4989469;28;20038;-64
2023/06/16 04:32:22;;;;;;;12.13;11.63;;;;;;;;;;4988861;28;20202;-64
2023/06/16 04:34:49;;;;;;;12.68;12.07;;;;;;;;;;4987577;28;20034;-64
2023/06/16 04:37:16;;;;;;;12.10;11.60;;;;;;;;;;4991476;28;20101;-65
2023/06/16 04:39:42;;;;;;;12.75;12.15;;;;;;;;;;4989845;28;20035;-65
2023/06/16 04:42:09;;;;;;;12.10;11.60;;;;;;;;;;4985241;28;20028;-64
2023/06/16 04:44:34;;;;;;;12.18;11.65;;;;;;;;;;4982511;28;20038;-63
2023/06/16 04:47:00;;;;;;;12.23;11.70;;;;;;;;;;4985689;28;20030;-65
2023/06/16 04:49:25;;;;;;;12.40;11.80;;;;;;;;;;4980701;28;20065;-67
2023/06/16 04:51:51;;;;;;;12.40;11.80;;;;;;;;;;4977340;28;20141;-65
2023/06/16 04:54:18;;;;;;;12.57;11.98;;;;;;;;;;4977395;28;20448;-63
2023/06/16 04:56:44;;;;;;;13.55;12.95;;;;;;;;;;4983986;28;20034;-68
2023/06/16 04:59:10;;;;;;;12.07;11.57;;;;;;;;;;4986014;28;20049;-62
2023/06/16 05:01:36;;;;;;;12.25;11.75;;;;;;;;;;4987374;28;20575;-62
2023/06/16 05:04:01;;;;;;;12.10;11.60;;;;;;;;;;4984839;28;20026;-63
2023/06/16 05:06:27;;;;;;;11.93;11.43;;;;;;;;;;4982572;28;20026;-62
2023/06/16 05:08:53;;;;;;;11.90;11.40;;;;;;;;;;4989533;28;20077;-63
2023/06/16 05:11:19;;;;;;;11.95;11.45;;;;;;;;;;4980022;28;20030;-63
2023/06/16 05:13:45;;;;;;;11.80;11.30;;;;;;;;;;4988633;28;20018;-63
2023/06/16 05:16:11;;;;;;;13.23;12.63;;;;;;;;;;4983374;28;20025;-62
2023/06/16 05:18:36;;;;;;;12.05;11.55;;;;;;;;;;4983202;28;20022;-63
2023/06/16 05:21:01;;;;;;;12.60;12.00;;;;;;;;;;4985334;28;20022;-62
2023/06/16 05:23:27;;;;;;;11.75;11.25;;;;;;;;;;4987653;28;20303;-62
2023/06/16 05:25:52;;;;;;;12.32;11.77;;;;;;;;;;4985387;28;20018;-62
2023/06/16 05:28:18;;;;;;;12.50;11.90;;;;;;;;;;4980655;28;20413;-63
2023/06/16 05:30:43;;;;;;;12.53;11.93;;;;;;;;;;4988111;28;20095;-62
2023/06/16 05:33:09;;;;;;;12.60;12.00;;;;;;;;;;4982151;28;20292;-63
2023/06/16 05:35:35;;;;;;;12.73;12.13;;;;;;;;;;4986364;28;20052;-62
2023/06/16 05:38:00;;;;;;;12.93;12.32;;;;;;;;;;4987383;28;20621;-62
2023/06/16 05:40:25;;;;;;;12.73;12.13;;;;;;;;;;4984852;28;20026;-63
2023/06/16 05:42:51;;;;;;;12.63;12.03;;;;;;;;;;4979668;28;20261;-62
2023/06/16 05:45:16;;;;;;;13.82;13.23;;;;;;;;;;4986294;28;20320;-62
2023/06/16 05:47:41;;;;;;;12.18;11.68;;;;;;;;;;4985410;28;20089;-63
2023/06/16 05:50:07;;;;;;;12.20;11.70;;;;;;;;;;4984903;28;20031;-63
2023/06/16 05:52:32;;;;;;;12.27;11.75;;;;;;;;;;4985929;28;20025;-62
2023/06/16 05:54:57;;;;;;;12.40;11.88;;;;;;;;;;4985728;28;20109;-62
2023/06/16 05:57:24;;;;;;;12.13;11.63;;;;;;;;;;4987266;28;20564;-62
2023/06/16 05:59:49;;;;;;;12.23;11.73;;;;;;;;;;4984129;28;20026;-62
2023/06/16 06:02:15;;;;;;;12.70;12.10;;;;;;;;;;4983437;28;20379;-62
2023/06/16 06:04:41;;;;;;;12.02;11.52;;;;;;;;;;4976230;28;20113;-63
2023/06/16 06:07:06;;;;;;;12.17;11.67;;;;;;;;;;4983306;28;20113;-63
2023/06/16 06:09:32;;;;;;;13.38;12.77;;;;;;;;;;4974128;28;20271;-62
2023/06/16 06:11:57;;;;;;;12.50;11.90;;;;;;;;;;4980603;28;20453;-63
2023/06/16 06:14:22;;;;;;;12.15;11.65;;;;;;;;;;4984040;28;20022;-64
2023/06/16 06:16:49;;;;;;;12.20;11.70;;;;;;;;;;4982736;28;20027;-63
2023/06/16 06:19:14;;;;;;;12.45;11.85;;;;;;;;;;4989832;28;20023;-61
2023/06/16 06:21:40;;;;;;;12.10;11.60;;;;;;;;;;4987395;28;20492;-61
2023/06/16 06:24:06;;;;;;;12.05;11.55;;;;;;;;;;4984940;28;20022;-61
2023/06/16 06:26:31;;;;;;;12.73;12.13;;;;;;;;;;4980682;28;21284;-62
2023/06/16 06:28:56;;;;;;;12.57;11.97;;;;;;;;;;4980477;28;20137;-62
2023/06/16 06:31:21;;;;;;;12.23;11.73;;;;;;;;;;4980256;28;20030;-61
2023/06/16 06:33:47;;;;;;;12.13;11.63;;;;;;;;;;4979992;28;20288;-61
2023/06/16 06:36:20;;;;;;;12.05;11.55;;;;;;;;;;4981174;28;20474;-61
2023/06/16 06:38:47;;;;;;;11.75;11.25;;;;;;;;;;4987258;28;20375;-61
2023/06/16 06:41:13;;;;;;;11.75;11.25;;;;;;;;;;4989081;28;20137;-62
2023/06/16 06:43:38;;;;;;;11.77;11.27;;;;;;;;;;4986583;28;20507;-62
2023/06/16 06:46:03;;;;;;;12.07;11.57;;;;;;;;;;4990920;28;20022;-62
2023/06/16 06:48:29;;;;;;;11.80;11.30;;;;;;;;;;4987104;28;20356;-61
2023/06/16 06:50:55;;;;;;;11.63;11.13;;;;;;;;;;4987758;28;20082;-62
2023/06/16 06:53:20;;;;;;;11.63;11.13;;;;;;;;;;4982626;28;20434;-62
2023/06/16 06:55:45;;;;;;;11.73;11.23;;;;;;;;;;4991451;28;20690;-62
2023/06/16 06:58:11;;;;;;;11.73;11.23;;;;;;;;;;4987413;28;20026;-62
2023/06/16 07:00:36;;;;;;;11.73;11.23;;;;;;;;;;4989987;28;20022;-62
2023/06/16 07:03:01;;;;;;;11.83;11.33;;;;;;;;;;4986872;28;20022;-62
2023/06/16 07:05:27;;;;;;;11.97;11.47;;;;;;;;;;4972617;28;20617;-65
2023/06/16 07:07:52;;;;;;;11.60;11.10;;;;;;;;;;4981070;28;20109;-66
2023/06/16 07:10:18;;;;;;;11.80;11.30;;;;;;;;;;4981009;28;20521;-66
2023/06/16 07:12:43;;;;;;;11.90;11.40;;;;;;;;;;4984072;28;20038;-66
2023/06/16 07:15:09;;;;;;;11.87;11.37;;;;;;;;;;4979304;28;20561;-67
2023/06/16 07:17:34;;;;;;;11.82;11.32;;;;;;;;;;4980776;28;20022;-65
2023/06/16 07:20:00;;;;;;;12.23;11.73;;;;;;;;;;4977697;28;20034;-66
2023/06/16 07:22:25;;;;;;;12.00;11.50;;;;;;;;;;4981708;28;20037;-64
2023/06/16 07:24:50;;;;;;;11.80;11.30;;;;;;;;;;4988997;28;20053;-63
2023/06/16 07:27:16;;;;;;;12.57;11.97;;;;;;;;;;4989747;28;20838;-63
2023/06/16 07:29:41;;;;;;;12.50;11.90;;;;;;;;;;4990809;28;20109;-64
2023/06/16 07:32:07;;;;;;;13.03;12.43;;;;;;;;;;4985026;28;20410;-63
2023/06/16 07:34:32;;;;;;;13.15;12.55;;;;;;;;;;4976870;28;20288;-64
2023/06/16 07:36:57;;;;;;;12.98;12.38;;;;;;;;;;4979998;28;20505;-64
2023/06/16 07:39:23;;;;;;;12.97;12.37;;;;;;;;;;4981325;28;20035;-65
2023/06/16 07:41:49;;;;;;;12.60;12.00;;;;;;;;;;4984241;28;20317;-68
2023/06/16 07:44:15;;;;;;;13.40;12.80;;;;;;;;;;4974871;28;20030;-69
2023/06/16 07:46:42;;;;;;;12.75;12.15;;;;;;;;;;4983284;28;20349;-66
2023/06/16 07:49:07;;;;;;;13.43;12.82;;;;;;;;;;4981764;28;20095;-66
2023/06/16 07:51:32;;;;;;;13.50;12.90;;;;;;;;;;4984190;28;20030;-66
2023/06/16 07:53:58;;;;;;;13.37;12.77;;;;;;;;;;4984522;28;20027;-65
2023/06/16 07:56:23;;;;;;;12.70;12.10;;;;;;;;;;4976736;28;20027;-65
2023/06/16 07:58:48;;;;;;;12.10;11.60;;;;;;;;;;4984428;28;20278;-66
2023/06/16 08:01:14;;;;;;;12.45;11.85;;;;;;;;;;4980355;28;20027;-66
2023/06/16 08:03:39;;;;;;;12.33;11.73;;;;;;;;;;4985005;28;20021;-67
2023/06/16 08:06:06;;;;;;;13.13;12.52;;;;;;;;;;4977378;28;20272;-65
2023/06/16 08:08:32;;;;;;;13.57;12.98;;;;;;;;;;4977765;28;20787;-69
2023/06/16 08:10:59;;;;;;;12.43;11.82;;;;;;;;;;4982402;28;20109;-69
2023/06/16 08:13:25;;;;;;;12.88;12.27;;;;;;;;;;4981392;28;20542;-70
2023/06/16 08:15:50;;;;;;;12.43;11.82;;;;;;;;;;4984431;28;20122;-67
2023/06/16 08:18:17;;;;;;;11.93;11.43;;;;;;;;;;4980118;28;20033;-61
2023/06/16 08:20:43;;;;;;;12.82;12.23;;;;;;;;;;4988614;28;20018;-62
2023/06/16 08:23:09;;;;;;;12.75;12.15;;;;;;;;;;4986518;28;20031;-62
2023/06/16 08:25:34;;;;;;;11.90;11.40;;;;;;;;;;4985710;28;20124;-63
2023/06/16 08:28:00;;;;;;;12.00;11.50;;;;;;;;;;4986791;28;20517;-64
2023/06/16 08:30:25;;;;;;;12.30;11.70;;;;;;;;;;4988311;28;20118;-62
2023/06/16 08:32:53;;;;;;;12.05;11.55;;;;;;;;;;4987437;28;20437;-62
2023/06/16 08:35:18;;;;;;;13.63;13.02;;;;;;;;;;4981489;28;20101;-62
2023/06/16 08:37:43;;;;;;;12.48;11.88;;;;;;;;;;4988637;28;20109;-63
2023/06/16 08:40:10;;;;;;;13.33;12.73;;;;;;;;;;4986092;28;20168;-63
2023/06/16 08:42:37;;;;;;;12.32;11.77;;;;;;;;;;4985370;28;20271;-63
2023/06/16 08:45:03;;;;;;;11.75;11.25;;;;;;;;;;4986802;28;20030;-61
2023/06/16 08:47:29;;;;;;;11.70;11.20;;;;;;;;;;4986040;28;20040;-62
2023/06/16 08:49:56;;;;;;;11.88;11.38;;;;;;;;;;4986971;28;20037;-62
2023/06/16 08:52:23;;;;;;;12.10;11.60;;;;;;;;;;4982555;28;20026;-63
2023/06/16 08:54:57;;;;;;;12.23;11.65;;;;;;;;;;4989629;28;20157;-62
2023/06/16 08:57:22;;;;;;;;;;;;;;;;;;4990225;28;20019;-62
2023/06/16 08:59:50;;;;;;;12.00;11.50;;;;;;;;;;4983146;28;19921;-62
2023/06/16 09:02:15;;;;;;;11.80;11.30;;;;;;;;;;4993731;28;20033;-63
2023/06/16 09:04:41;;;;;;;12.00;11.50;;;;;;;;;;4988784;28;20385;-62
2023/06/16 09:07:07;;;;;;;11.85;11.35;;;;;;;;;;4985377;28;20030;-63
2023/06/16 09:09:32;;;;;;;11.88;11.38;;;;;;;;;;4987099;28;20557;-62
2023/06/16 09:12:05;;;;;;;11.73;11.23;;;;;;;;;;4987654;28;20045;-64
2023/06/16 09:14:31;;;;;;;11.82;11.32;;;;;;;;;;4985412;28;20379;-63
2023/06/16 09:16:58;;;;;;;12.30;11.70;;;;;;;;;;4989535;28;20555;-63
2023/06/16 09:19:25;;;;;;;12.23;11.63;;;;;;;;;;4988186;28;20838;-63
2023/06/16 09:21:53;;;;;;;12.30;11.70;;;;;;;;;;4985677;28;20027;-63
2023/06/16 09:24:23;;;;;;;12.20;11.60;;;;;;;;;;4987671;28;20030;-63
2023/06/16 09:26:52;;;;;;;12.20;11.60;;;;;;;;;;4983430;28;20759;-63
2023/06/16 09:29:22;;;;;;;12.02;11.45;;;;;;;;;;4982691;28;20031;-62
2023/06/16 09:31:47;;;;;;;13.55;12.85;;;;;;;;;;4980774;28;20486;-62
2023/06/16 09:34:13;;;;;;;12.07;11.52;;;;;;;;;;4977124;28;20042;-63
2023/06/16 09:36:38;;;;;;;12.32;11.73;;;;;;;;;;4979188;28;20077;-63
2023/06/16 09:39:07;;;;;;;13.65;12.95;;;;;;;;;;4979227;28;20042;-63
2023/06/16 09:41:33;;;;;;;13.00;12.40;;;;;;;;;;4980100;28;20050;-63
2023/06/16 09:43:59;;;;;;;12.35;11.75;;;;;;;;;;4987167;28;20767;-63
2023/06/16 09:46:25;;;;;;;11.68;11.18;;;;;;;;;;4981616;28;20030;-62
2023/06/16 09:48:51;;;;;;;12.45;11.85;;;;;;;;;;4977561;28;20049;-62
2023/06/16 09:51:17;;;;;;;12.68;12.07;;;;;;;;;;4980746;28;20134;-63
2023/06/16 09:53:43;;;;;;;12.38;11.77;;;;;;;;;;4976075;28;20522;-63
2023/06/16 09:56:09;;;;;;;13.20;12.60;;;;;;;;;;4978966;28;20038;-62
2023/06/16 09:58:34;;;;;;;11.75;11.25;;;;;;;;;;4981570;28;20026;-63
2023/06/16 10:01:00;;;;;;;12.77;12.18;;;;;;;;;;4981921;28;20014;-63
2023/06/16 10:03:27;;;;;;;12.30;11.70;;;;;;;;;;4978626;28;20544;-63
2023/06/16 10:05:54;;;;;;;12.32;11.73;;;;;;;;;;4983318;28;20034;-62
2023/06/16 10:08:19;;;;;;;12.93;12.32;;;;;;;;;;4984842;28;20033;-65
2023/06/16 10:10:46;;;;;;;12.65;12.05;;;;;;;;;;4987391;28;20023;-64
2023/06/16 10:13:12;;;;;;;12.80;12.20;;;;;;;;;;4988722;28;20033;-65
2023/06/16 10:15:39;;;;;;;12.68;12.07;;;;;;;;;;4989918;28;20389;-63
2023/06/16 10:18:06;;;;;;;13.18;12.57;;;;;;;;;;4984388;28;20030;-64
2023/06/16 10:20:32;;;;;;;12.95;12.35;;;;;;;;;;4986591;28;20029;-65
2023/06/16 10:23:01;;;;;;;12.20;11.60;;;;;;;;;;4985683;28;21219;-65
2023/06/16 10:25:30;;;;;;;12.10;11.50;;;;;;;;;;4987053;28;20132;-65
2023/06/16 10:27:56;;;;;;;13.13;12.52;;;;;;;;;;4972957;28;20066;-66
2023/06/16 10:30:23;;;;;;;12.80;12.20;;;;;;;;;;4979836;28;20067;-67
2023/06/16 10:32:49;;;;;;;13.05;12.45;;;;;;;;;;4982809;28;20034;-67
2023/06/16 10:35:14;;;;;;;14.20;13.50;;;;;;;;;;4981620;28;20034;-66
2023/06/16 10:37:40;;;;;;;13.32;12.73;;;;;;;;;;4981998;28;20022;-67
2023/06/16 10:40:08;;;;;;;12.95;12.35;;;;;;;;;;4979865;28;20104;-67
2023/06/16 10:42:34;;;;;;;13.23;12.63;;;;;;;;;;4982417;28;20052;-67
2023/06/16 10:45:18;;;;;;;13.05;12.45;;;;;;;;;;4978226;28;20109;-66
2023/06/16 10:47:59;;;;;;;13.88;13.18;;;;;;;;;;4975833;28;20027;-66
2023/06/16 10:50:43;;;;;;;14.65;13.95;;;;;;;;;;4981294;28;20552;-68
2023/06/16 10:53:10;;;;;;;13.18;12.57;;;;;;;;;;4978928;28;20023;-66
2023/06/16 10:55:37;;;;;;;13.48;12.82;;;;;;;;;;4980253;28;20034;-64
2023/06/16 10:58:19;;;;;;;12.93;12.32;;;;;;;;;;4979041;28;20109;-66
2023/06/16 11:01:02;;;;;;;12.82;12.23;;;;;;;;;;4985877;28;20161;-66
2023/06/16 11:03:30;;;;;;;12.88;12.27;;;;;;;;;;4983863;28;20029;-66
2023/06/16 11:05:59;;;;;;;12.57;11.98;;;;;;;;;;4984001;28;20088;-67
2023/06/16 11:08:24;;;;;;;13.05;12.45;;;;;;;;;;4985694;28;20030;-67
2023/06/16 11:10:53;;;;;;;12.45;11.85;;;;;;;;;;4985365;28;20114;-68
2023/06/16 11:13:21;;;;;;;13.63;12.93;;;;;;;;;;4981323;28;20030;-66
2023/06/16 11:15:47;;;;;;;13.38;12.73;;;;;;;;;;4985215;28;20038;-67
2023/06/16 11:18:12;;;;;;;13.63;12.93;;;;;;;;;;4985715;28;20019;-67
2023/06/16 11:20:38;;;;;;;13.43;12.75;;;;;;;;;;4984061;28;20481;-67
2023/06/16 11:23:04;;;;;;;13.82;13.13;;;;;;;;;;4975244;28;20029;-63
2023/06/16 11:25:30;;;;;;;13.77;13.07;;;;;;;;;;4978383;28;20023;-65
2023/06/16 11:27:55;;;;;;;13.55;12.85;;;;;;;;;;4982238;28;20055;-63
2023/06/16 11:30:21;;;;;;;13.77;13.07;;;;;;;;;;4984903;28;20485;-66
2023/06/16 11:32:46;;;;;;;12.98;12.38;;;;;;;;;;4980466;28;20029;-64
2023/06/16 11:35:12;;;;;;;13.52;12.82;;;;;;;;;;4983915;28;20022;-67
2023/06/16 11:37:40;;;;;;;13.60;12.95;;;;;;;;;;4983510;28;20459;-63
2023/06/16 11:40:07;;;;;;;14.48;13.73;;;;;;;;;;4983935;28;20411;-62
2023/06/16 11:42:33;;;;;;;14.25;13.55;;;;;;;;;;4983698;28;20030;-63
2023/06/16 11:44:58;;;;;;;13.63;12.93;;;;;;;;;;4985594;28;20041;-63
2023/06/16 11:47:24;;;;;;;14.07;13.38;;;;;;;;;;4982904;28;20033;-64
2023/06/16 11:49:50;;;;;;;12.85;12.25;;;;;;;;;;4983884;28;20118;-64
2023/06/16 11:52:16;;;;;;;12.98;12.38;;;;;;;;;;4981483;28;20113;-64
2023/06/16 11:54:42;;;;;;;13.07;12.48;;;;;;;;;;4987070;28;20125;-64
2023/06/16 11:57:07;;;;;;;13.02;12.43;;;;;;;;;;4980054;28;20034;-65
2023/06/16 11:59:32;;;;;;;12.77;12.17;;;;;;;;;;4986534;28;20367;-65
2023/06/16 12:01:58;;;;;;;13.40;12.75;;;;;;;;;;4981010;28;20058;-63
2023/06/16 12:04:26;;;;;;;13.38;12.73;;;;;;;;;;4980903;28;20486;-64
2023/06/16 12:06:53;;;;;;;13.20;12.60;;;;;;;;;;4982760;28;20971;-65
2023/06/16 12:09:19;;;;;;;13.95;13.25;;;;;;;;;;4982052;28;20038;-63
2023/06/16 12:11:46;;;;;;;13.80;13.10;;;;;;;;;;4983043;28;20026;-65
2023/06/16 12:14:18;;;;;;;13.13;12.52;;;;;;;;;;4978136;28;20904;-64
2023/06/16 12:16:43;;;;;;;13.65;12.95;;;;;;;;;;4983820;28;20105;-64
2023/06/16 12:19:08;;;;;;;14.40;13.70;;;;;;;;;;4985425;28;20178;-63
2023/06/16 12:21:34;;;;;;;13.43;12.73;;;;;;;;;;4985369;28;20030;-63
2023/06/16 12:24:00;;;;;;;13.13;12.52;;;;;;;;;;4986582;28;20026;-64
2023/06/16 12:26:26;;;;;;;13.10;12.50;;;;;;;;;;4985441;28;20086;-64
2023/06/16 12:28:53;;;;;;;12.55;11.95;;;;;;;;;;4986159;28;20034;-65
2023/06/16 12:31:19;;;;;;;12.00;11.48;;;;;;;;;;4985749;28;20026;-63
2023/06/16 12:33:45;;;;;;;12.77;12.18;;;;;;;;;;4984198;28;20038;-65
2023/06/16 12:36:10;;;;;;;12.15;11.55;;;;;;;;;;4988176;28;20029;-64
2023/06/16 12:38:35;;;;;;;12.40;11.80;;;;;;;;;;4985360;28;20022;-66
2023/06/16 12:41:01;;;;;;;12.45;11.85;;;;;;;;;;4988988;28;20037;-66
2023/06/16 12:43:26;;;;;;;11.98;11.40;;;;;;;;;;4984557;28;20022;-65
2023/06/16 12:45:52;;;;;;;12.55;11.95;;;;;;;;;;4986996;28;20069;-63
2023/06/16 12:48:17;;;;;;;12.57;11.98;;;;;;;;;;4983994;28;20062;-64
2023/06/16 12:50:43;;;;;;;12.38;11.77;;;;;;;;;;4985473;28;20508;-65
2023/06/16 12:53:08;;;;;;;12.52;11.93;;;;;;;;;;4981348;28;20093;-65
2023/06/16 12:55:33;;;;;;;13.00;12.40;;;;;;;;;;4984358;28;20077;-64
2023/06/16 12:57:59;;;;;;;11.93;11.40;;;;;;;;;;4989440;28;20033;-65
2023/06/16 13:00:27;;;;;;;12.80;12.20;;;;;;;;;;4989070;28;20041;-65
2023/06/16 13:02:53;;;;;;;12.18;11.57;;;;;;;;;;4980306;28;20049;-65
2023/06/16 13:05:18;;;;;;;12.80;12.20;;;;;;;;;;4983804;28;20050;-65
2023/06/16 13:07:44;;;;;;;12.65;12.05;;;;;;;;;;4982505;28;20041;-64
2023/06/16 13:10:09;;;;;;;15.43;14.60;;;;;;;;;;4978309;28;20062;-60
2023/06/16 13:12:35;;;;;;;14.48;13.68;;;;;;;;;;4972232;28;20034;-61
2023/06/16 13:15:00;;;;;;;14.45;13.68;;;;;;;;;;4983022;28;20530;-62
2023/06/16 13:17:26;;;;;;;13.65;12.95;;;;;;;;;;4977308;28;20027;-61
2023/06/16 13:19:52;;;;;;;14.68;13.88;;;;;;;;;;4982209;28;20226;-61
2023/06/16 13:22:17;;;;;;;13.98;13.27;;;;;;;;;;4975440;28;20370;-61
2023/06/16 13:24:42;;;;;;;14.10;13.40;;;;;;;;;;4978768;28;20022;-64
2023/06/16 13:27:08;;;;;;;14.32;13.55;;;;;;;;;;4978557;28;20572;-63
2023/06/16 13:29:34;;;;;;;14.53;13.73;;;;;;;;;;4982391;28;20069;-63
2023/06/16 13:31:59;;;;;;;13.68;12.98;;;;;;;;;;4981764;28;20295;-64
2023/06/16 13:34:25;;;;;;;14.18;13.48;;;;;;;;;;4979631;28;20858;-65
2023/06/16 13:36:50;;;;;;;15.30;14.40;;;;;;;;;;4979198;28;20049;-62
2023/06/16 13:39:15;;;;;;;12.90;12.30;;;;;;;;;;4981746;28;20042;-62
2023/06/16 13:41:41;;;;;;;13.10;12.50;;;;;;;;;;4984171;28;20041;-64
2023/06/16 13:44:06;;;;;;;13.57;12.88;;;;;;;;;;4984217;28;20022;-64
2023/06/16 13:46:31;;;;;;;13.43;12.73;;;;;;;;;;4984429;28;20355;-64
2023/06/16 13:48:57;;;;;;;13.68;12.98;;;;;;;;;;4987504;28;20716;-64
2023/06/16 13:51:22;;;;;;;13.57;12.88;;;;;;;;;;4986929;28;20030;-63
2023/06/16 13:53:48;;;;;;;13.07;12.48;;;;;;;;;;4989225;28;20018;-64
2023/06/16 13:56:13;;;;;;;12.52;11.93;;;;;;;;;;4987088;28;20430;-63
2023/06/16 13:58:39;;;;;;;12.48;11.88;;;;;;;;;;4983832;28;20035;-63
2023/06/16 14:01:04;;;;;;;12.65;12.05;;;;;;;;;;4986002;28;20037;-66
2023/06/16 14:03:29;;;;;;;12.57;11.98;;;;;;;;;;4985726;28;20026;-67
2023/06/16 14:05:55;;;;;;;13.10;12.50;;;;;;;;;;4984413;28;20046;-67
2023/06/16 14:08:21;;;;;;;12.80;12.20;;;;;;;;;;4983164;28;20441;-67
2023/06/16 14:10:46;;;;;;;13.00;12.40;;;;;;;;;;4989366;28;20027;-68
2023/06/16 14:13:12;;;;;;;13.27;12.63;;;;;;;;;;4988008;28;20022;-66